createdAt,value
2023-03-29T00:00:08.972Z,29.58
2023-03-29T00:02:59.468Z,29.52
2023-03-29T00:05:26.828Z,24.15
2023-03-29T00:07:54.565Z,18.90
2023-03-29T00:10:24.122Z,29.15
2023-03-29T00:12:52.677Z,17.23
2023-03-29T00:15:20.502Z,17.73
2023-03-29T00:17:48.072Z,20.90
2023-03-29T00:20:16.601Z,17.02
2023-03-29T00:22:46.692Z,21.73
2023-03-29T00:25:14.215Z,17.77
2023-03-29T00:27:41.712Z,19.20
2023-03-29T00:30:10.175Z,20.25
2023-03-29T00:32:38.160Z,20.65
2023-03-29T00:35:06.852Z,20.90
2023-03-29T00:37:34.410Z,21.70
2023-03-29T00:40:01.776Z,28.42
2023-03-29T00:42:30.360Z,28.52
2023-03-29T00:45:11.809Z,137.65
2023-03-29T00:47:46.489Z,237.33
2023-03-29T00:50:26.342Z,87.65
2023-03-29T00:53:03.660Z,168.48
2023-03-29T00:55:43.702Z,38.17
2023-03-29T00:58:14.289Z,32.13
2023-03-29T01:00:52.212Z,18.15
2023-03-29T01:03:27.514Z,17.52
2023-03-29T01:06:04.945Z,15.40
2023-03-29T01:08:37.510Z,20.67
2023-03-29T01:13:52.122Z,19.90
2023-03-29T01:16:22.074Z,16.50
2023-03-29T01:18:49.876Z,17.27
2023-03-29T01:21:32.375Z,19.20
2023-03-29T01:24:07.118Z,20.35
2023-03-29T01:27:02.790Z,12.23
2023-03-29T01:29:45.614Z,26.90
2023-03-29T01:32:22.282Z,22.35
2023-03-29T01:35:19.434Z,21.25
2023-03-29T01:37:53.115Z,28.27
2023-03-29T01:40:20.622Z,35.47
2023-03-29T01:43:08.031Z,21.23
2023-03-29T01:45:35.714Z,25.00
2023-03-29T01:48:16.548Z,21.00
2023-03-29T01:51:09.337Z,19.90
2023-03-29T01:53:59.465Z,26.08
2023-03-29T01:56:29.273Z,17.80
2023-03-29T01:59:01.782Z,19.77
2023-03-29T02:01:38.582Z,18.38
2023-03-29T02:04:13.255Z,26.50
2023-03-29T02:06:42.867Z,18.75
2023-03-29T02:09:10.200Z,22.67
2023-03-29T02:11:40.801Z,22.85
2023-03-29T02:14:08.035Z,22.52
2023-03-29T02:16:37.734Z,24.42
2023-03-29T02:19:07.824Z,26.23
2023-03-29T02:21:55.722Z,25.08
2023-03-29T02:24:25.235Z,22.55
2023-03-29T02:26:52.969Z,24.45
2023-03-29T02:29:20.278Z,24.50
2023-03-29T02:31:51.437Z,27.80
2023-03-29T02:34:33.715Z,30.50
2023-03-29T02:39:33.831Z,27.42
2023-03-29T02:42:03.138Z,25.58
2023-03-29T02:44:33.353Z,21.15
2023-03-29T02:47:07.812Z,24.60
2023-03-29T02:49:35.131Z,25.95
2023-03-29T02:52:09.989Z,31.83
2023-03-29T02:54:43.480Z,28.45
2023-03-29T02:57:12.424Z,26.83
2023-03-29T02:59:40.921Z,31.33
2023-03-29T03:02:08.665Z,25.83
2023-03-29T03:04:36.150Z,42.85
2023-03-29T03:07:07.457Z,39.72
2023-03-29T03:09:35.517Z,32.38
2023-03-29T03:12:03.153Z,24.40
2023-03-29T03:14:30.569Z,29.23
2023-03-29T03:17:03.875Z,23.80
2023-03-29T03:19:32.243Z,21.38
2023-03-29T03:21:59.963Z,30.70
2023-03-29T03:24:28.206Z,32.15
2023-03-29T03:26:57.552Z,20.02
2023-03-29T03:29:26.115Z,21.75
2023-03-29T03:32:12.502Z,28.45
2023-03-29T03:34:59.902Z,28.25
2023-03-29T03:37:28.105Z,25.52
2023-03-29T03:39:55.736Z,25.05
2023-03-29T03:42:24.373Z,26.55
2023-03-29T03:44:51.783Z,25.63
2023-03-29T03:47:39.693Z,35.17
2023-03-29T03:50:36.010Z,38.17
2023-03-29T03:53:03.641Z,26.05
2023-03-29T03:55:53.281Z,27.38
2023-03-29T03:58:24.738Z,23.70
2023-03-29T04:00:52.235Z,25.92
2023-03-29T04:03:40.114Z,35.58
2023-03-29T04:06:10.128Z,32.42
2023-03-29T04:09:04.294Z,39.80
2023-03-29T04:11:38.388Z,29.52
2023-03-29T04:14:06.888Z,38.17
2023-03-29T04:16:47.556Z,31.80
2023-03-29T04:19:33.560Z,40.20
2023-03-29T04:22:00.925Z,41.05
2023-03-29T04:24:28.414Z,52.38
2023-03-29T04:27:18.242Z,34.28
2023-03-29T04:29:46.412Z,50.03
2023-03-29T04:32:27.664Z,41.63
2023-03-29T04:35:06.215Z,30.92
2023-03-29T04:37:34.095Z,43.13
2023-03-29T04:40:03.948Z,34.03
2023-03-29T04:42:44.820Z,45.80
2023-03-29T04:45:18.067Z,37.65
2023-03-29T04:48:24.256Z,38.60
2023-03-29T04:50:54.123Z,40.53
2023-03-29T04:53:22.265Z,49.95
2023-03-29T04:55:52.484Z,49.15
2023-03-29T04:58:32.544Z,40.03
2023-03-29T05:01:01.447Z,39.33
2023-03-29T05:03:33.054Z,51.88
2023-03-29T05:08:39.236Z,50.45
2023-03-29T05:11:25.127Z,44.25
2023-03-29T05:13:52.845Z,44.75
2023-03-29T05:16:20.801Z,43.22
2023-03-29T05:18:48.709Z,46.70
2023-03-29T05:21:16.265Z,59.63
2023-03-29T05:23:45.830Z,50.70
2023-03-29T05:26:33.792Z,46.47
2023-03-29T05:29:01.099Z,50.33
2023-03-29T05:31:29.234Z,53.35
2023-03-29T05:33:56.902Z,59.67
2023-03-29T05:36:24.840Z,63.60
2023-03-29T05:38:52.264Z,54.13
2023-03-29T05:41:22.807Z,56.03
2023-03-29T05:44:08.808Z,61.65
2023-03-29T05:46:37.584Z,60.10
2023-03-29T05:49:05.168Z,59.70
2023-03-29T05:51:56.966Z,58.88
2023-03-29T05:54:25.809Z,59.05
2023-03-29T05:56:53.501Z,63.75
2023-03-29T05:59:21.093Z,49.70
2023-03-29T06:01:48.647Z,49.53
2023-03-29T06:04:19.575Z,47.92
2023-03-29T06:07:02.216Z,55.63
2023-03-29T06:09:30.557Z,51.45
2023-03-29T06:12:03.999Z,59.75
2023-03-29T06:14:31.498Z,53.88
2023-03-29T06:17:12.375Z,57.10
2023-03-29T06:19:39.919Z,43.55
2023-03-29T06:22:07.553Z,56.10
2023-03-29T06:24:35.067Z,37.92
2023-03-29T06:27:09.380Z,45.60
2023-03-29T06:29:36.714Z,53.85
2023-03-29T06:32:05.437Z,44.90
2023-03-29T06:34:58.715Z,39.67
2023-03-29T06:37:32.525Z,44.30
2023-03-29T06:40:13.283Z,36.15
2023-03-29T06:42:46.030Z,37.42
2023-03-29T06:45:35.251Z,32.35
2023-03-29T06:48:07.730Z,45.35
2023-03-29T06:50:35.938Z,40.00
2023-03-29T06:53:19.025Z,28.80
2023-03-29T06:55:54.252Z,32.83
2023-03-29T06:58:36.934Z,25.52
2023-03-29T07:01:11.845Z,28.45
2023-03-29T07:03:54.471Z,23.50
2023-03-29T07:06:27.805Z,25.15
2023-03-29T07:08:59.669Z,37.13
2023-03-29T07:11:47.155Z,25.75
2023-03-29T07:14:21.593Z,36.45
2023-03-29T07:16:49.571Z,20.77
2023-03-29T07:19:22.676Z,26.58
2023-03-29T07:21:57.069Z,20.00
2023-03-29T07:24:40.568Z,21.23
2023-03-29T07:27:08.900Z,20.98
2023-03-29T07:29:37.174Z,18.70
2023-03-29T07:32:04.460Z,16.23
2023-03-29T07:34:51.902Z,15.02
2023-03-29T07:37:36.598Z,18.23
2023-03-29T07:40:12.836Z,18.60
2023-03-29T07:42:58.823Z,15.70
2023-03-29T07:45:29.833Z,17.40
2023-03-29T07:48:10.234Z,17.70
2023-03-29T07:50:53.252Z,27.55
2023-03-29T07:53:26.958Z,12.73
2023-03-29T07:55:56.280Z,22.70
2023-03-29T07:58:42.061Z,19.38
2023-03-29T08:01:13.486Z,19.35
2023-03-29T08:04:11.543Z,12.93
2023-03-29T08:06:57.684Z,12.98
2023-03-29T08:09:33.966Z,13.15
2023-03-29T08:12:01.575Z,17.17
2023-03-29T08:14:36.143Z,10.02
2023-03-29T08:17:19.096Z,15.82
2023-03-29T08:19:50.955Z,10.85
2023-03-29T08:22:22.095Z,11.05
2023-03-29T08:25:05.572Z,11.82
2023-03-29T08:27:37.739Z,12.38
2023-03-29T08:30:08.129Z,11.75
2023-03-29T08:32:37.991Z,12.73
2023-03-29T08:35:08.770Z,6.95
2023-03-29T08:37:51.365Z,8.68
2023-03-29T08:40:27.969Z,8.10
2023-03-29T08:43:18.165Z,9.15
2023-03-29T08:46:13.075Z,8.55
2023-03-29T08:49:02.333Z,13.60
2023-03-29T08:51:37.281Z,13.52
2023-03-29T08:54:16.372Z,8.75
2023-03-29T08:57:19.714Z,6.10
2023-03-29T08:59:54.987Z,8.65
2023-03-29T09:02:26.213Z,7.85
2023-03-29T09:05:07.560Z,8.82
2023-03-29T09:07:43.584Z,7.97
2023-03-29T09:10:17.402Z,6.65
2023-03-29T09:12:55.529Z,6.40
2023-03-29T09:15:42.922Z,8.40
2023-03-29T09:18:51.257Z,16.70
2023-03-29T09:21:49.431Z,4.13
2023-03-29T09:24:54.184Z,5.50
2023-03-29T09:27:36.887Z,6.07
2023-03-29T09:30:41.626Z,7.90
2023-03-29T09:33:23.915Z,5.47
2023-03-29T09:36:14.982Z,5.97
2023-03-29T09:38:46.421Z,5.43
2023-03-29T09:41:31.769Z,7.38
2023-03-29T09:44:10.893Z,6.35
2023-03-29T09:46:56.017Z,5.03
2023-03-29T09:49:33.108Z,8.48
2023-03-29T09:52:05.860Z,5.85
2023-03-29T09:54:34.287Z,4.88
2023-03-29T09:57:20.709Z,6.00
2023-03-29T09:59:51.419Z,9.55
2023-03-29T10:02:20.449Z,7.82
2023-03-29T10:04:55.535Z,5.57
2023-03-29T10:07:22.801Z,7.47
2023-03-29T10:09:56.446Z,9.85
2023-03-29T10:12:24.889Z,5.88
2023-03-29T10:14:54.569Z,5.63
2023-03-29T10:17:23.352Z,7.55
2023-03-29T10:19:55.757Z,4.63
2023-03-29T10:22:31.884Z,6.53
2023-03-29T10:24:59.317Z,9.77
2023-03-29T10:27:28.883Z,9.15
2023-03-29T10:30:00.290Z,6.75
2023-03-29T10:32:30.344Z,10.60
2023-03-29T10:35:20.548Z,5.35
2023-03-29T10:37:51.950Z,5.30
2023-03-29T10:40:30.881Z,7.47
2023-03-29T10:43:12.040Z,6.15
2023-03-29T10:45:41.138Z,5.80
2023-03-29T10:48:16.556Z,6.15
2023-03-29T10:50:50.445Z,8.80
2023-03-29T10:53:25.400Z,7.20
2023-03-29T10:56:23.002Z,7.72
2023-03-29T10:59:09.314Z,4.60
2023-03-29T11:02:02.897Z,4.68
2023-03-29T11:04:56.710Z,6.63
2023-03-29T11:07:43.306Z,5.10
2023-03-29T11:10:40.820Z,6.20
2023-03-29T11:13:21.233Z,3.65
2023-03-29T11:16:10.853Z,5.95
2023-03-29T11:19:05.093Z,4.45
2023-03-29T11:21:40.067Z,6.28
2023-03-29T11:24:34.672Z,4.53
2023-03-29T11:27:02.046Z,5.15
2023-03-29T11:30:08.639Z,3.45
2023-03-29T11:33:05.104Z,5.60
2023-03-29T11:36:01.694Z,10.20
2023-03-29T11:38:43.380Z,7.75
2023-03-29T11:41:23.318Z,3.45
2023-03-29T11:44:10.467Z,6.38
2023-03-29T11:46:47.978Z,6.47
2023-03-29T11:49:20.032Z,5.30
2023-03-29T11:51:54.453Z,6.57
2023-03-29T11:54:31.215Z,10.55
2023-03-29T11:57:13.943Z,4.10
2023-03-29T11:59:53.807Z,4.75
2023-03-29T12:02:28.913Z,6.40
2023-03-29T12:04:59.553Z,5.38
2023-03-29T12:07:36.421Z,8.43
2023-03-29T12:10:21.089Z,3.38
2023-03-29T12:13:15.301Z,5.63
2023-03-29T12:15:49.298Z,8.05
2023-03-29T12:18:41.107Z,10.77
2023-03-29T12:21:18.823Z,6.15
2023-03-29T12:23:47.762Z,4.25
2023-03-29T12:26:53.839Z,7.10
2023-03-29T12:29:41.987Z,4.72
2023-03-29T12:32:46.593Z,3.33
2023-03-29T12:35:53.259Z,3.42
2023-03-29T12:38:39.660Z,4.68
2023-03-29T12:41:26.468Z,3.40
2023-03-29T12:44:15.591Z,4.22
2023-03-29T12:46:59.938Z,11.85
2023-03-29T12:49:34.104Z,6.32
2023-03-29T12:52:14.398Z,3.63
2023-03-29T12:54:41.609Z,7.20
2023-03-29T12:57:38.467Z,8.35
2023-03-29T13:00:42.678Z,4.28
2023-03-29T13:03:38.720Z,3.92
2023-03-29T13:06:32.046Z,8.55
2023-03-29T13:09:03.307Z,3.38
2023-03-29T13:11:37.581Z,3.00
2023-03-29T13:14:17.320Z,4.88
2023-03-29T13:16:44.715Z,2.60
2023-03-29T13:19:34.579Z,4.63
2023-03-29T13:22:05.793Z,2.13
2023-03-29T13:25:07.028Z,2.70
2023-03-29T13:27:43.213Z,2.65
2023-03-29T13:30:29.459Z,2.88
2023-03-29T13:33:21.083Z,5.40
2023-03-29T13:36:21.236Z,3.28
2023-03-29T13:38:54.379Z,4.78
2023-03-29T13:41:39.321Z,3.88
2023-03-29T13:44:27.965Z,7.65
2023-03-29T13:47:13.827Z,8.57
2023-03-29T13:49:43.932Z,5.57
2023-03-29T13:52:43.302Z,5.78
2023-03-29T13:55:32.723Z,5.97
2023-03-29T13:58:05.691Z,4.95
2023-03-29T14:00:55.633Z,4.57
2023-03-29T14:03:29.822Z,3.33
2023-03-29T14:06:02.765Z,4.10
2023-03-29T14:08:35.433Z,3.95
2023-03-29T14:11:06.946Z,19.90
2023-03-29T14:13:34.953Z,154.07
2023-03-29T14:16:08.456Z,522.70
2023-03-29T14:18:41.486Z,257.13
2023-03-29T14:21:11.447Z,688.78
2023-03-29T14:23:38.964Z,490.45
2023-03-29T14:26:15.378Z,641.10
2023-03-29T14:28:57.334Z,230.07
2023-03-29T14:31:32.905Z,778.03
2023-03-29T14:34:02.508Z,397.60
2023-03-29T14:36:33.282Z,903.83
2023-03-29T14:39:20.050Z,560.67
2023-03-29T14:41:54.469Z,936.95
2023-03-29T14:44:24.932Z,580.22
2023-03-29T14:46:53.059Z,144.32
2023-03-29T14:49:22.988Z,235.27
2023-03-29T14:51:52.123Z,385.27
2023-03-29T14:54:33.673Z,31.65
2023-03-29T14:57:07.315Z,547.08
2023-03-29T14:59:34.854Z,75.07
2023-03-29T15:02:02.343Z,73.72
2023-03-29T15:04:37.476Z,106.65
2023-03-29T15:07:05.252Z,37.83
2023-03-29T15:09:36.037Z,56.90
2023-03-29T15:12:03.634Z,178.32
2023-03-29T15:14:34.005Z,22.05
2023-03-29T15:17:20.814Z,110.32
2023-03-29T15:19:53.203Z,47.35
2023-03-29T15:22:20.476Z,9.68
2023-03-29T15:24:49.762Z,12.27
2023-03-29T15:27:19.718Z,7.35
2023-03-29T15:29:47.989Z,10.70
2023-03-29T15:32:24.097Z,21.33
2023-03-29T15:35:03.094Z,11.93
2023-03-29T15:37:30.832Z,8.43
2023-03-29T15:39:58.746Z,7.68
2023-03-29T15:42:26.627Z,18.63
2023-03-29T15:44:56.353Z,12.27
2023-03-29T15:47:24.078Z,9.25
2023-03-29T15:49:51.822Z,13.52
2023-03-29T15:52:19.043Z,10.18
2023-03-29T15:54:46.479Z,8.70
2023-03-29T15:57:15.878Z,7.45
2023-03-29T15:59:44.448Z,6.72
2023-03-29T16:02:16.587Z,9.30
2023-03-29T16:04:44.262Z,6.35
2023-03-29T16:07:17.043Z,12.75
2023-03-29T16:09:46.151Z,9.40
2023-03-29T16:12:13.832Z,9.02
2023-03-29T16:14:43.046Z,9.60
2023-03-29T16:17:10.766Z,11.88
2023-03-29T16:19:38.290Z,9.27
2023-03-29T16:22:07.373Z,9.48
2023-03-29T16:24:36.216Z,11.60
2023-03-29T16:27:04.803Z,52.42
2023-03-29T16:29:32.462Z,7.28
2023-03-29T16:32:00.032Z,12.02
2023-03-29T16:34:27.642Z,8.50
2023-03-29T16:36:54.864Z,11.90
2023-03-29T16:39:22.461Z,8.23
2023-03-29T16:41:50.301Z,14.00
2023-03-29T16:44:23.512Z,7.28
2023-03-29T16:46:57.501Z,9.77
2023-03-29T16:49:25.047Z,8.38
2023-03-29T16:51:52.289Z,9.50
2023-03-29T16:54:19.967Z,12.80
2023-03-29T16:56:47.405Z,8.52
2023-03-29T16:59:15.420Z,12.77
2023-03-29T17:01:43.033Z,8.82
2023-03-29T17:04:11.519Z,8.05
2023-03-29T17:06:39.020Z,15.18
2023-03-29T17:09:07.399Z,8.65
2023-03-29T17:11:34.854Z,13.70
2023-03-29T17:14:02.865Z,17.05
2023-03-29T17:16:30.402Z,14.60
2023-03-29T17:19:00.393Z,13.63
2023-03-29T17:21:29.323Z,23.13
2023-03-29T17:23:57.106Z,13.00
2023-03-29T17:26:24.513Z,12.20
2023-03-29T17:28:52.201Z,13.32
2023-03-29T17:31:19.671Z,11.35
2023-03-29T17:33:50.496Z,15.85
2023-03-29T17:36:19.250Z,22.20
2023-03-29T17:38:48.890Z,11.10
2023-03-29T17:41:16.482Z,8.85
2023-03-29T17:43:44.109Z,14.70
2023-03-29T17:46:11.517Z,18.10
2023-03-29T17:48:39.282Z,17.10
2023-03-29T17:51:06.909Z,15.25
2023-03-29T17:53:34.581Z,19.17
2023-03-29T17:56:01.996Z,35.63
2023-03-29T17:58:29.690Z,19.60
2023-03-29T18:00:57.084Z,22.75
2023-03-29T18:03:24.672Z,13.95
2023-03-29T18:05:52.073Z,25.23
2023-03-29T18:08:19.599Z,29.13
2023-03-29T18:10:46.884Z,25.85
2023-03-29T18:13:14.744Z,32.83
2023-03-29T18:15:44.091Z,35.08
2023-03-29T18:18:11.764Z,40.03
2023-03-29T18:20:38.987Z,39.30
2023-03-29T18:23:06.539Z,51.50
2023-03-29T18:25:34.089Z,36.15
2023-03-29T18:28:02.058Z,28.13
2023-03-29T18:30:29.328Z,42.03
2023-03-29T18:32:57.082Z,37.88
2023-03-29T18:35:24.390Z,37.75
2023-03-29T18:37:52.269Z,30.85
2023-03-29T18:40:24.927Z,27.83
2023-03-29T18:42:52.797Z,33.20
2023-03-29T18:45:21.425Z,36.83
2023-03-29T18:47:50.832Z,32.47
2023-03-29T18:50:18.347Z,31.73
2023-03-29T18:52:45.846Z,39.53
2023-03-29T18:55:13.025Z,37.15
2023-03-29T18:57:40.646Z,37.42
2023-03-29T19:00:15.469Z,27.27
2023-03-29T19:02:43.222Z,34.65
2023-03-29T19:05:11.227Z,25.58
2023-03-29T19:07:39.024Z,33.25
2023-03-29T19:10:07.335Z,30.25
2023-03-29T19:12:35.249Z,31.83
2023-03-29T19:15:02.550Z,25.73
2023-03-29T19:17:30.808Z,25.75
2023-03-29T19:19:58.400Z,24.58
2023-03-29T19:22:26.609Z,24.00
2023-03-29T19:24:53.806Z,22.63
2023-03-29T19:27:21.674Z,24.73
2023-03-29T19:29:49.438Z,30.98
2023-03-29T19:32:16.918Z,21.05
2023-03-29T19:34:44.167Z,25.63
2023-03-29T19:37:11.701Z,19.13
2023-03-29T19:39:41.126Z,29.70
2023-03-29T19:42:08.711Z,34.55
2023-03-29T19:44:38.184Z,28.23
2023-03-29T19:47:06.074Z,35.15
2023-03-29T19:49:38.248Z,25.70
2023-03-29T19:54:33.492Z,23.30
2023-03-29T19:57:01.882Z,22.58
2023-03-29T19:59:29.126Z,37.20
2023-03-29T20:01:57.015Z,31.75
2023-03-29T20:04:25.255Z,28.30
2023-03-29T20:06:52.736Z,32.05
2023-03-29T20:09:20.195Z,30.67
2023-03-29T20:11:47.701Z,30.67
2023-03-29T20:14:15.486Z,29.05
2023-03-29T20:16:44.149Z,25.42
2023-03-29T20:19:14.019Z,27.40
2023-03-29T20:21:41.647Z,27.52
2023-03-29T20:24:09.766Z,23.48
2023-03-29T20:26:37.284Z,29.92
2023-03-29T20:29:04.628Z,23.63
2023-03-29T20:31:32.198Z,29.55
2023-03-29T20:33:59.769Z,28.73
2023-03-29T20:36:30.594Z,29.60
2023-03-29T20:38:59.248Z,32.88
2023-03-29T20:41:27.031Z,25.45
2023-03-29T20:44:00.574Z,35.38
2023-03-29T20:46:35.230Z,39.80
2023-03-29T20:49:07.427Z,27.77
2023-03-29T20:54:05.407Z,26.67
2023-03-29T20:56:35.076Z,26.02
2023-03-29T20:59:04.031Z,26.50
2023-03-29T21:01:32.474Z,29.63
2023-03-29T21:03:59.847Z,24.65
2023-03-29T21:06:27.454Z,31.80
2023-03-29T21:08:54.747Z,28.85
2023-03-29T21:11:22.944Z,24.63
2023-03-29T21:13:50.178Z,27.77
2023-03-29T21:16:17.770Z,20.60
2023-03-29T21:18:45.022Z,28.27
2023-03-29T21:21:12.878Z,25.75
2023-03-29T21:23:40.260Z,32.67
2023-03-29T21:26:07.963Z,26.67
2023-03-29T21:28:36.174Z,33.60
2023-03-29T21:31:06.115Z,28.48
2023-03-29T21:33:34.876Z,30.92
2023-03-29T21:36:02.653Z,54.53
2023-03-29T21:38:29.964Z,48.10
2023-03-29T21:40:58.249Z,34.13
2023-03-29T21:43:25.810Z,31.00
2023-03-29T21:45:53.284Z,31.30
2023-03-29T21:48:20.648Z,31.98
2023-03-29T21:50:51.118Z,28.75
2023-03-29T21:53:18.659Z,50.00
2023-03-29T21:55:49.106Z,41.35
2023-03-29T21:58:16.746Z,64.40
2023-03-29T22:00:45.181Z,57.20
2023-03-29T22:03:13.409Z,56.05
2023-03-29T22:05:41.418Z,86.72
2023-03-29T22:08:10.698Z,57.20
2023-03-29T22:10:41.223Z,109.10
2023-03-29T22:13:09.273Z,69.22
2023-03-29T22:15:36.716Z,53.55
2023-03-29T22:18:05.185Z,299.55
2023-03-29T22:20:34.209Z,115.90
2023-03-29T22:23:01.446Z,63.40
2023-03-29T22:25:29.046Z,288.70
2023-03-29T22:27:56.232Z,129.43
2023-03-29T22:30:23.664Z,212.25
2023-03-29T22:32:51.219Z,102.47
2023-03-29T22:35:18.720Z,407.50
2023-03-29T22:37:45.962Z,282.20
2023-03-29T22:40:14.705Z,114.82
2023-03-29T22:42:41.927Z,56.67
2023-03-29T22:45:10.071Z,67.40
2023-03-29T22:47:37.326Z,83.40
2023-03-29T22:50:05.613Z,58.42
2023-03-29T22:52:32.812Z,105.10
2023-03-29T22:55:00.219Z,57.17
2023-03-29T22:57:27.379Z,36.63
2023-03-29T22:59:54.800Z,274.27
2023-03-29T23:02:21.986Z,60.15
2023-03-29T23:04:49.651Z,30.27
2023-03-29T23:07:17.370Z,57.20
2023-03-29T23:09:45.076Z,55.28
2023-03-29T23:12:12.240Z,30.90
2023-03-29T23:14:42.660Z,84.68
2023-03-29T23:17:10.408Z,64.30
2023-03-29T23:19:38.126Z,46.95
2023-03-29T23:22:05.423Z,73.25
2023-03-29T23:24:33.436Z,220.68
2023-03-29T23:27:01.231Z,33.67
2023-03-29T23:29:28.872Z,29.80
2023-03-29T23:31:57.599Z,231.88
2023-03-29T23:34:25.890Z,96.55
2023-03-29T23:36:53.274Z,288.95
2023-03-29T23:39:20.788Z,53.38
2023-03-29T23:41:48.091Z,71.75
2023-03-29T23:44:15.562Z,73.65
2023-03-29T23:46:42.842Z,97.00
2023-03-29T23:49:10.611Z,75.68
2023-03-29T23:51:39.238Z,37.78
2023-03-29T23:54:07.171Z,24.02
2023-03-29T23:56:34.639Z,50.38
2023-03-29T23:59:04.416Z,79.90
